KLFK/LFK METAR and TAF weather

Enter ICAO airport designator
Station Type Date Time Source
KLFK METAR 2018/12/10 02:53 UTC NOAA

KLFK 100253Z AUTO 00000KT 6SM BR CLR 03/03 A3032 RMK AO2 SLP268 T00330033 53010


Station Type Date Time Source
KLFK Decoded METAR 2018/12/10 02:53 UTC NOAA

LUFKIN ANGELINA COUNTY AIRPORT , TX, United States (KLFK) 31-14N 94-45W 88M
Dec 09, 2018 - 09:53 PM EST / 2018.12.10 0253 UTC
Wind: Calm:0
Visibility: 6 mile(s):0
Sky conditions: clear
Weather: mist
Temperature: 37.9 F (3.3 C)
Dew Point: 37.9 F (3.3 C)
Relative Humidity: 100%
Pressure (altimeter): 30.32 in. Hg (1026 hPa)
Pressure tendency: 0.03 inches (1.0 hPa) higher than three hours ago
ob: KLFK 100253Z AUTO 00000KT 6SM BR CLR 03/03 A3032 RMK AO2 SLP268 T00330033 53010
cycle: 3

Station Type Date Time Source
KLFK TAF 2018/12/09 18:22 UTC NOAA

TAF KLFK 091720Z 0918/1018 32006KT P6SM OVC015
TEMPO 0918/0922 OVC030
FM092200 32005KT P6SM BKN030
FM100300 32003KT P6SM SCT035 SCT080
FM100900 31003KT P6SM SKC
FM101500 32005KT P6SM SKC


Example: see airport list